Terminal Aerodrome Forecast
Issued by NWS

Home | Current Version | Previous Version | Text Only | Print | Product List | Glossary On
Versions: 1 2 3 4 5 6 7 8 9 10 11 12 13 14 15 16 17 18 19 20 21
184
FTUS43 KIND 170520
TAFLAF
TAF
KLAF 170520Z 1706/1806 27005KT P6SM VCSH SCT025 BKN070
     FM171000 28005KT P6SM VCSH BKN025
     FM171300 27004KT P6SM SCT025
     FM171900 25008KT P6SM SCT130
      AMD LTD TO CLD VIS AND WIND TIL 171400=

USA.gov is the U.S. government's official web portal to all federal, state and local government web resources and services.